Time;durP1;ratioP1;P1;durP2;ratioP2;P2;SDS_P1;SDS_P2;PMS_P1;PMS_P2;Temp;Humidity;BMP_temperature;BMP_pressure;BME280_temperature;BME280_humidity;BME280_pressure;Samples;Min_cycle;Max_cycle;Signal;HPM_P1;HPM_P2
2022/03/11 05:00:32;;;;;;;8.10;5.00;;;1.10;99.90;;;;;;5948723;23;20181;-69
2022/03/11 05:03:01;;;;;;;6.82;5.97;;;1.10;99.90;;;;;;4984428;28;20212;-69
2022/03/11 05:05:27;;;;;;;4.60;3.65;;;1.00;99.90;;;;;;4983335;28;20664;-69
2022/03/11 05:07:54;;;;;;;4.40;3.60;;;1.00;99.90;;;;;;4970217;28;20196;-69
2022/03/11 05:10:21;;;;;;;6.97;5.32;;;1.00;99.90;;;;;;4975021;28;20308;-68
2022/03/11 05:12:48;;;;;;;5.43;5.03;;;1.00;99.90;;;;;;4987482;28;20239;-69
2022/03/11 05:15:15;;;;;;;12.45;5.45;;;1.00;99.90;;;;;;4990100;28;20203;-69
2022/03/11 05:17:43;;;;;;;4.75;3.75;;;0.90;99.90;;;;;;4984053;28;20294;-68
2022/03/11 05:20:11;;;;;;;7.28;4.93;;;0.90;99.90;;;;;;4987247;28;20211;-67
2022/03/11 05:22:37;;;;;;;8.55;5.97;;;0.90;99.90;;;;;;4992886;28;20215;-68
2022/03/11 05:25:05;;;;;;;8.52;5.03;;;0.90;99.90;;;;;;4993074;28;20552;-68
2022/03/11 05:27:31;;;;;;;6.35;5.75;;;0.90;99.90;;;;;;4993074;28;20576;-68
2022/03/11 05:29:58;;;;;;;3.20;2.85;;;0.90;99.90;;;;;;4992052;28;20284;-68
2022/03/11 05:32:25;;;;;;;3.15;2.88;;;0.90;99.90;;;;;;4989105;28;20224;-68
2022/03/11 05:34:53;;;;;;;10.02;7.15;;;0.90;99.90;;;;;;4992330;28;20240;-68
2022/03/11 05:37:20;;;;;;;8.32;5.70;;;0.80;99.90;;;;;;4980303;28;20228;-67
2022/03/11 05:39:46;;;;;;;6.15;5.25;;;0.80;99.90;;;;;;4993092;28;20211;-69
2022/03/11 05:42:13;;;;;;;5.18;4.65;;;0.80;99.90;;;;;;4992056;28;20224;-68
2022/03/11 05:44:40;;;;;;;8.35;5.35;;;0.80;99.90;;;;;;4993184;28;20215;-68
2022/03/11 05:47:07;;;;;;;4.88;3.92;;;0.80;99.90;;;;;;4993329;28;20208;-68
2022/03/11 05:49:34;;;;;;;9.40;5.45;;;0.80;99.90;;;;;;4993505;28;20223;-68
2022/03/11 05:52:02;;;;;;;5.15;4.75;;;0.80;99.90;;;;;;4991623;28;20224;-69
2022/03/11 05:54:28;;;;;;;4.38;3.55;;;0.70;99.90;;;;;;4993396;28;20204;-68
2022/03/11 05:56:55;;;;;;;5.15;4.43;;;0.80;99.90;;;;;;4990872;28;20212;-67
2022/03/11 05:59:22;;;;;;;3.35;2.97;;;0.80;99.90;;;;;;4978339;28;20271;-68
2022/03/11 06:01:49;;;;;;;7.07;5.80;;;0.70;99.90;;;;;;4981260;28;20775;-68
2022/03/11 06:04:16;;;;;;;4.68;3.55;;;0.70;99.90;;;;;;4992121;28;20204;-68
2022/03/11 06:06:42;;;;;;;5.25;4.70;;;0.70;99.90;;;;;;4982206;28;20250;-68
2022/03/11 06:09:11;;;;;;;8.20;6.20;;;0.70;99.90;;;;;;5003164;28;20212;-68
2022/03/11 06:11:38;;;;;;;11.45;5.05;;;0.70;99.90;;;;;;4992626;28;20240;-68
2022/03/11 06:14:04;;;;;;;6.63;5.70;;;0.70;99.90;;;;;;4997080;28;20571;-67
2022/03/11 06:16:31;;;;;;;9.02;5.78;;;0.70;99.90;;;;;;4976616;28;20224;-67
2022/03/11 06:18:58;;;;;;;7.47;5.30;;;0.70;99.90;;;;;;4986703;28;20254;-67
2022/03/11 06:21:24;;;;;;;6.30;5.40;;;0.70;99.90;;;;;;4987319;28;20235;-69
2022/03/11 06:23:51;;;;;;;3.90;3.60;;;0.80;99.90;;;;;;4993899;28;20267;-68
2022/03/11 06:26:19;;;;;;;9.23;5.10;;;0.80;99.90;;;;;;4991685;28;20685;-69
2022/03/11 06:28:46;;;;;;;7.85;5.15;;;0.80;99.90;;;;;;4992943;28;20216;-68
2022/03/11 06:31:19;;;;;;;4.32;3.30;;;0.80;99.90;;;;;;4991743;28;20235;-67
2022/03/11 06:33:45;;;;;;;5.28;4.78;;;0.80;99.90;;;;;;4992839;28;20282;-69
2022/03/11 06:36:12;;;;;;;8.73;4.13;;;0.90;99.90;;;;;;4992070;28;20739;-68
2022/03/11 06:38:39;;;;;;;12.57;5.50;;;0.90;99.90;;;;;;4992293;28;20204;-67
2022/03/11 06:41:06;;;;;;;5.88;4.07;;;0.90;99.90;;;;;;4991893;28;20543;-68
2022/03/11 06:43:35;;;;;;;4.82;4.43;;;1.00;99.90;;;;;;5013548;23;20636;-67
2022/03/11 06:46:01;;;;;;;6.82;6.10;;;1.00;99.90;;;;;;5012369;28;20200;-68
2022/03/11 06:48:28;;;;;;;5.43;4.88;;;1.10;99.90;;;;;;4999977;28;20258;-68
2022/03/11 06:50:55;;;;;;;10.13;6.38;;;1.10;99.90;;;;;;5002594;28;20574;-69
2022/03/11 06:53:25;;;;;;;10.45;6.13;;;1.10;99.90;;;;;;4999947;28;20471;-67
2022/03/11 06:55:52;;;;;;;5.35;4.60;;;1.20;99.90;;;;;;4992085;28;20282;-71
2022/03/11 06:58:19;;;;;;;4.45;4.00;;;1.20;99.90;;;;;;4992307;28;20235;-67
2022/03/11 07:00:47;;;;;;;4.60;4.20;;;1.20;99.90;;;;;;4988774;28;20222;-67
2022/03/11 07:03:14;;;;;;;6.25;4.82;;;1.30;99.90;;;;;;4982629;28;20303;-68
2022/03/11 07:05:41;;;;;;;7.05;5.00;;;1.30;99.90;;;;;;4976438;28;20212;-68
2022/03/11 07:08:10;;;;;;;2.92;2.67;;;1.40;99.90;;;;;;4988403;28;20216;-68
2022/03/11 07:10:37;;;;;;;3.15;2.95;;;1.40;99.90;;;;;;4984137;28;20586;-69
2022/03/11 07:13:03;;;;;;;6.57;5.70;;;1.40;99.90;;;;;;4978326;28;20228;-68
2022/03/11 07:15:30;;;;;;;6.32;4.18;;;1.50;99.90;;;;;;4991903;28;20211;-68
2022/03/11 07:17:58;;;;;;;6.25;5.00;;;1.50;99.90;;;;;;4985797;28;20315;-69
2022/03/11 07:20:25;;;;;;;7.22;6.57;;;1.50;99.90;;;;;;4987700;28;20207;-69
2022/03/11 07:22:52;;;;;;;6.68;4.57;;;1.60;99.90;;;;;;4985295;28;20610;-69
2022/03/11 07:25:19;;;;;;;9.65;5.72;;;1.60;99.90;;;;;;4991310;28;20292;-69
2022/03/11 07:27:46;;;;;;;6.93;4.78;;;1.60;99.90;;;;;;4990061;28;20200;-70
2022/03/11 07:30:13;;;;;;;6.07;5.38;;;1.70;99.90;;;;;;4990695;28;20257;-70
2022/03/11 07:32:40;;;;;;;10.13;5.80;;;1.80;99.90;;;;;;4990705;28;20223;-70
2022/03/11 07:35:12;;;;;;;6.60;4.30;;;1.80;99.90;;;;;;4991825;28;20214;-70
2022/03/11 07:37:39;;;;;;;6.85;4.93;;;1.80;99.90;;;;;;4983820;28;20238;-69
2022/03/11 07:40:06;;;;;;;9.00;5.93;;;1.80;99.90;;;;;;4991383;28;20258;-70
2022/03/11 07:42:33;;;;;;;4.28;4.00;;;1.90;99.90;;;;;;4984300;28;20256;-70
2022/03/11 07:44:59;;;;;;;6.68;3.90;;;1.90;99.90;;;;;;4980877;28;20199;-71
2022/03/11 07:47:26;;;;;;;8.50;5.43;;;2.00;99.90;;;;;;4986525;28;20575;-71
2022/03/11 07:49:53;;;;;;;5.30;4.30;;;2.00;99.90;;;;;;4991747;28;20618;-70
2022/03/11 07:52:22;;;;;;;5.25;4.85;;;2.00;99.90;;;;;;4983121;28;20235;-70
2022/03/11 07:54:49;;;;;;;6.80;5.72;;;2.10;99.90;;;;;;4991507;28;20692;-69
2022/03/11 07:57:16;;;;;;;8.73;5.38;;;2.10;99.90;;;;;;4990700;28;20224;-70
2022/03/11 07:59:42;;;;;;;6.32;5.28;;;2.20;99.50;;;;;;4988801;28;20204;-71
2022/03/11 08:02:09;;;;;;;5.40;4.88;;;2.20;98.90;;;;;;4985771;28;20210;-70
2022/03/11 08:04:36;;;;;;;5.85;4.78;;;2.20;99.50;;;;;;4989439;28;20227;-70
2022/03/11 08:07:06;;;;;;;5.60;3.90;;;2.30;99.10;;;;;;4990675;28;20218;-70
2022/03/11 08:09:34;;;;;;;8.95;5.80;;;2.40;99.10;;;;;;4988834;28;20203;-70
2022/03/11 08:12:01;;;;;;;16.10;6.93;;;2.50;98.80;;;;;;4991402;28;20200;-73
2022/03/11 08:14:27;;;;;;;6.05;4.93;;;2.50;98.20;;;;;;4991601;28;20642;-70
2022/03/11 08:16:54;;;;;;;6.35;5.53;;;2.60;98.40;;;;;;4991833;28;20234;-70
2022/03/11 08:19:23;;;;;;;5.78;5.03;;;2.60;98.10;;;;;;4991392;28;20207;-70
2022/03/11 08:21:50;;;;;;;9.85;5.95;;;2.60;97.70;;;;;;4974141;28;20234;-70
2022/03/11 08:24:16;;;;;;;6.05;5.10;;;2.70;97.50;;;;;;4987153;28;20246;-71
2022/03/11 08:26:45;;;;;;;5.63;4.38;;;2.70;97.50;;;;;;4989308;28;20590;-71
2022/03/11 08:29:11;;;;;;;7.22;4.05;;;2.80;97.30;;;;;;4991761;28;20204;-71
2022/03/11 08:31:38;;;;;;;5.97;4.10;;;2.80;96.90;;;;;;4976530;28;20205;-71
2022/03/11 08:34:05;;;;;;;5.38;3.78;;;2.90;97.40;;;;;;4973695;28;20252;-71
2022/03/11 08:36:32;;;;;;;7.43;6.00;;;3.00;97.00;;;;;;4996424;28;20258;-70
2022/03/11 08:38:59;;;;;;;5.93;5.13;;;3.00;96.40;;;;;;4994134;28;20548;-71
2022/03/11 08:41:27;;;;;;;4.93;4.53;;;3.00;95.70;;;;;;4977374;28;20605;-71
2022/03/11 08:43:55;;;;;;;5.50;4.10;;;3.10;95.90;;;;;;4971445;28;20359;-71
2022/03/11 08:46:22;;;;;;;6.60;5.78;;;3.20;96.00;;;;;;4979759;28;20268;-71
2022/03/11 08:48:48;;;;;;;7.60;5.25;;;3.30;95.50;;;;;;4983377;28;20215;-71
2022/03/11 08:51:15;;;;;;;4.32;3.72;;;3.40;94.70;;;;;;4988593;28;20300;-70
2022/03/11 08:53:42;;;;;;;7.47;6.15;;;3.50;94.90;;;;;;4991182;28;20227;-71
2022/03/11 08:56:08;;;;;;;5.50;3.95;;;3.60;94.70;;;;;;4991607;28;20576;-71
2022/03/11 08:58:35;;;;;;;6.40;4.32;;;3.70;94.60;;;;;;4990073;28;20227;-70
2022/03/11 09:01:03;;;;;;;9.48;4.25;;;3.80;93.90;;;;;;4980226;28;20216;-71
2022/03/11 09:03:30;;;;;;;10.30;4.93;;;3.80;92.90;;;;;;4988937;28;20540;-71
2022/03/11 09:05:58;;;;;;;7.00;4.82;;;3.80;92.70;;;;;;4982885;28;20684;-70
2022/03/11 09:08:25;;;;;;;2.90;2.80;;;3.90;92.90;;;;;;4992544;28;20235;-70
2022/03/11 09:10:51;;;;;;;7.53;4.53;;;4.00;92.40;;;;;;4992806;28;20236;-69
2022/03/11 09:13:18;;;;;;;10.23;3.95;;;4.10;92.20;;;;;;4991574;28;20747;-71
2022/03/11 09:15:45;;;;;;;3.90;3.65;;;4.20;92.10;;;;;;4993385;28;20204;-70
2022/03/11 09:18:14;;;;;;;6.68;4.93;;;4.30;91.30;;;;;;4993951;28;20323;-71
2022/03/11 09:20:41;;;;;;;7.55;4.25;;;4.30;91.00;;;;;;4993199;28;20214;-70
2022/03/11 09:23:10;;;;;;;4.90;4.53;;;4.30;90.60;;;;;;4993141;28;20231;-70
2022/03/11 09:25:37;;;;;;;3.97;3.63;;;4.30;89.60;;;;;;4989614;28;20208;-69
2022/03/11 09:28:04;;;;;;;5.43;4.03;;;4.20;89.30;;;;;;4993762;28;20211;-70
2022/03/11 09:30:31;;;;;;;3.35;3.15;;;4.30;89.40;;;;;;4991788;28;20216;-69
2022/03/11 09:32:58;;;;;;;5.88;5.28;;;4.40;89.80;;;;;;4992545;28;20281;-69
2022/03/11 09:35:26;;;;;;;4.47;4.13;;;4.50;89.10;;;;;;4993173;28;20251;-69
2022/03/11 09:37:53;;;;;;;6.93;6.28;;;4.60;88.20;;;;;;4985352;28;20836;-69
2022/03/11 09:40:20;;;;;;;5.20;4.88;;;4.70;85.70;;;;;;4992935;28;20217;-68
2022/03/11 09:42:47;;;;;;;5.40;4.35;;;4.70;84.20;;;;;;4992837;28;20228;-68
2022/03/11 09:45:14;;;;;;;10.13;5.80;;;4.80;84.90;;;;;;4992899;28;20204;-69
2022/03/11 09:47:42;;;;;;;7.68;5.43;;;4.90;83.60;;;;;;4992791;28;20290;-70
2022/03/11 09:50:09;;;;;;;6.53;4.70;;;5.00;82.50;;;;;;4992854;28;20212;-70
2022/03/11 09:52:37;;;;;;;5.40;4.10;;;5.00;80.80;;;;;;4992761;28;20319;-69
2022/03/11 09:55:05;;;;;;;9.88;5.32;;;5.00;81.00;;;;;;4993830;28;20204;-69
2022/03/11 09:57:32;;;;;;;5.35;4.85;;;5.10;81.60;;;;;;4993365;28;20311;-69
2022/03/11 09:59:59;;;;;;;5.13;3.63;;;5.30;80.80;;;;;;4992989;28;20208;-70
2022/03/11 10:02:25;;;;;;;5.22;4.60;;;5.30;79.40;;;;;;4989467;28;20234;-70
2022/03/11 10:04:54;;;;;;;6.80;5.05;;;5.50;78.90;;;;;;4988397;28;20215;-69
2022/03/11 10:07:22;;;;;;;5.57;4.85;;;5.50;76.50;;;;;;4991658;28;20204;-69
2022/03/11 10:09:50;;;;;;;7.03;4.03;;;5.60;75.80;;;;;;4991864;28;20212;-70
2022/03/11 10:12:21;;;;;;;6.00;4.30;;;5.60;74.90;;;;;;4992398;28;20235;-70
2022/03/11 10:14:56;;;;;;;9.43;3.65;;;5.60;74.40;;;;;;4973389;28;20239;-70
2022/03/11 10:17:23;;;;;;;6.63;4.45;;;5.60;73.60;;;;;;4982465;28;20251;-70
2022/03/11 10:19:59;;;;;;;4.47;4.18;;;5.70;74.70;;;;;;4995719;28;20208;-70
2022/03/11 10:22:26;;;;;;;4.18;3.75;;;5.80;72.70;;;;;;4996857;28;20219;-70
2022/03/11 10:24:55;;;;;;;7.22;5.80;;;5.90;73.00;;;;;;4997706;28;20263;-70
2022/03/11 10:27:23;;;;;;;6.18;5.22;;;6.00;71.20;;;;;;4994853;28;20196;-70
2022/03/11 10:29:51;;;;;;;3.85;3.55;;;6.00;70.20;;;;;;4993794;28;20730;-69
2022/03/11 10:32:24;;;;;;;4.25;3.85;;;6.00;70.60;;;;;;4994047;28;20211;-70
2022/03/11 10:34:50;;;;;;;6.40;5.90;;;6.00;70.80;;;;;;4995169;28;20713;-69
2022/03/11 10:37:17;;;;;;;4.68;4.28;;;6.00;70.10;;;;;;4991982;28;20616;-69
2022/03/11 10:39:46;;;;;;;6.60;5.22;;;6.10;69.70;;;;;;4992016;28;20620;-70
2022/03/11 10:42:19;;;;;;;5.10;3.88;;;6.30;69.80;;;;;;4984492;28;20845;-70
2022/03/11 10:44:58;;;;;;;6.90;4.05;;;6.20;68.80;;;;;;4990285;28;20686;-70
2022/03/11 10:47:26;;;;;;;5.72;4.50;;;6.40;69.50;;;;;;4988138;28;20244;-70
2022/03/11 10:49:55;;;;;;;3.33;3.00;;;6.50;69.10;;;;;;4991328;28;20204;-70
2022/03/11 10:52:36;;;;;;;4.63;4.07;;;6.50;68.60;;;;;;4991630;28;20207;-70
2022/03/11 10:55:18;;;;;;;11.02;5.13;;;6.60;66.10;;;;;;4990896;28;20319;-70
2022/03/11 10:57:47;;;;;;;3.38;3.10;;;6.60;65.30;;;;;;4991590;28;20208;-70
2022/03/11 11:00:23;;;;;;;5.22;4.20;;;6.70;64.70;;;;;;4990825;28;20207;-69
2022/03/11 11:02:51;;;;;;;8.88;4.82;;;6.70;65.40;;;;;;4991490;28;20229;-69
2022/03/11 11:05:18;;;;;;;3.10;2.90;;;6.90;65.80;;;;;;4991217;28;20853;-71
2022/03/11 11:07:45;;;;;;;4.57;4.18;;;6.90;66.30;;;;;;4991097;28;20203;-71
2022/03/11 11:10:13;;;;;;;8.40;4.72;;;7.00;64.50;;;;;;4983700;28;20212;-71
2022/03/11 11:12:41;;;;;;;5.20;3.20;;;7.00;64.00;;;;;;4990330;28;20227;-71
2022/03/11 11:15:11;;;;;;;5.25;4.75;;;7.10;62.70;;;;;;4991442;28;20204;-70
2022/03/11 11:17:39;;;;;;;5.78;4.55;;;7.20;62.60;;;;;;4985253;28;20216;-71
2022/03/11 11:20:11;;;;;;;5.43;3.60;;;7.20;61.80;;;;;;4981682;28;20219;-71
2022/03/11 11:22:40;;;;;;;4.78;4.35;;;7.30;61.60;;;;;;4990934;28;20216;-72
2022/03/11 11:25:08;;;;;;;5.32;3.90;;;7.40;60.40;;;;;;4991197;28;20619;-71
2022/03/11 11:27:36;;;;;;;7.00;6.38;;;7.40;61.30;;;;;;4990888;28;20254;-71
2022/03/11 11:30:03;;;;;;;7.72;4.60;;;7.50;62.50;;;;;;4990672;28;20359;-71
2022/03/11 11:32:31;;;;;;;4.00;3.58;;;7.60;61.70;;;;;;4990955;28;20204;-71
2022/03/11 11:35:23;;;;;;;6.70;6.10;;;7.70;61.00;;;;;;4991019;28;20203;-71
2022/03/11 11:37:50;;;;;;;6.60;5.95;;;7.70;60.40;;;;;;4989229;28;20611;-71
2022/03/11 11:40:19;;;;;;;6.72;4.95;;;7.70;59.10;;;;;;4992367;28;20204;-72
2022/03/11 11:43:25;;;;;;;6.28;5.68;;;7.70;58.90;;;;;;4998184;28;20235;-71
2022/03/11 11:45:54;;;;;;;6.88;6.15;;;7.70;58.30;;;;;;4984291;28;20279;-71
2022/03/11 11:48:58;;;;;;;4.13;3.40;;;7.70;58.20;;;;;;4992692;28;20260;-71
2022/03/11 11:52:01;;;;;;;6.70;5.03;;;7.70;58.80;;;;;;4971535;28;20759;-71
2022/03/11 11:54:44;;;;;;;5.82;5.28;;;7.80;58.30;;;;;;4982250;28;20243;-71
2022/03/11 11:57:25;;;;;;;11.55;5.75;;;7.80;58.30;;;;;;4972263;28;20312;-71
2022/03/11 11:59:53;;;;;;;5.32;4.80;;;7.80;58.20;;;;;;4980682;28;20317;-71
2022/03/11 12:02:42;;;;;;;8.57;7.20;;;7.90;59.20;;;;;;4990972;28;20212;-71
2022/03/11 12:05:40;;;;;;;4.20;3.88;;;7.90;58.10;;;;;;4990153;28;20231;-71
2022/03/11 12:08:10;;;;;;;4.55;4.13;;;8.00;58.50;;;;;;4990457;28;20204;-71
2022/03/11 12:10:50;;;;;;;6.63;5.15;;;8.10;58.30;;;;;;4985622;28;20251;-71
2022/03/11 12:13:32;;;;;;;4.50;3.85;;;8.10;58.60;;;;;;4988320;28;20242;-70
2022/03/11 12:15:59;;;;;;;3.40;3.20;;;8.10;58.70;;;;;;4989775;28;20188;-70
2022/03/11 12:18:44;;;;;;;5.72;3.78;;;8.20;58.70;;;;;;4991035;28;20249;-70
2022/03/11 12:21:24;;;;;;;4.60;4.13;;;8.30;58.90;;;;;;4989257;28;20222;-70
2022/03/11 12:23:53;;;;;;;6.10;4.65;;;8.30;58.70;;;;;;4991076;28;20271;-70
2022/03/11 12:26:19;;;;;;;5.13;4.55;;;8.40;58.60;;;;;;4987992;28;20208;-70
2022/03/11 12:28:46;;;;;;;9.15;5.40;;;8.50;58.40;;;;;;4990815;28;20529;-71
2022/03/11 12:31:16;;;;;;;5.30;4.90;;;8.60;58.60;;;;;;4989612;28;20318;-70
2022/03/11 12:33:45;;;;;;;4.20;4.00;;;8.60;58.70;;;;;;4989933;28;20664;-71
2022/03/11 12:36:15;;;;;;;5.80;3.25;;;8.60;57.40;;;;;;4973471;28;20204;-71
2022/03/11 12:38:43;;;;;;;7.90;4.97;;;8.60;57.10;;;;;;4970493;28;20286;-70
2022/03/11 12:41:13;;;;;;;6.30;5.70;;;8.60;57.40;;;;;;4984408;28;20215;-70
2022/03/11 12:43:42;;;;;;;4.38;4.07;;;8.70;56.40;;;;;;4990243;28;20716;-70
2022/03/11 12:46:10;;;;;;;5.00;4.60;;;8.70;57.20;;;;;;4975810;28;20205;-70
2022/03/11 12:48:39;;;;;;;5.72;5.15;;;8.80;57.00;;;;;;4971356;28;20630;-70
2022/03/11 12:51:07;;;;;;;5.78;2.65;;;8.80;56.30;;;;;;4989033;28;20208;-70
2022/03/11 12:53:37;;;;;;;4.45;3.72;;;8.90;56.00;;;;;;4990335;28;20227;-70
2022/03/11 12:56:04;;;;;;;3.88;3.47;;;8.90;56.20;;;;;;4988723;28;20212;-70
2022/03/11 12:58:36;;;;;;;4.70;4.30;;;8.90;56.40;;;;;;4984649;28;20313;-70
2022/03/11 13:01:06;;;;;;;5.93;5.43;;;8.90;55.70;;;;;;4983766;28;20680;-70
2022/03/11 13:03:34;;;;;;;5.38;5.00;;;8.80;54.20;;;;;;4989434;28;20240;-70
2022/03/11 13:06:03;;;;;;;4.90;4.50;;;8.80;54.40;;;;;;4989062;28;20460;-70
2022/03/11 13:08:30;;;;;;;5.20;4.72;;;8.90;54.80;;;;;;4989596;28;20208;-70
2022/03/11 13:10:57;;;;;;;4.28;3.95;;;8.90;54.90;;;;;;4989174;28;20669;-70
2022/03/11 13:13:25;;;;;;;6.93;4.78;;;8.90;54.50;;;;;;4989999;28;20243;-70
2022/03/11 13:15:55;;;;;;;3.25;3.05;;;9.00;54.60;;;;;;4989709;28;20211;-69
2022/03/11 13:18:24;;;;;;;5.53;4.68;;;9.10;54.80;;;;;;4986043;28;20485;-70
2022/03/11 13:20:56;;;;;;;6.10;5.53;;;9.10;54.10;;;;;;4987711;28;20616;-70
2022/03/11 13:23:25;;;;;;;4.80;4.22;;;9.10;53.00;;;;;;4989813;28;20770;-70
2022/03/11 13:25:54;;;;;;;6.03;3.53;;;9.00;53.30;;;;;;4972794;28;20213;-69
2022/03/11 13:28:24;;;;;;;5.88;4.13;;;9.10;53.30;;;;;;4981731;28;20201;-70
2022/03/11 13:30:54;;;;;;;5.30;4.60;;;9.10;53.30;;;;;;4969177;28;20215;-70
2022/03/11 13:33:23;;;;;;;3.25;2.95;;;9.20;53.70;;;;;;4977406;28;20224;-70
2022/03/11 13:36:04;;;;;;;5.40;4.85;;;9.20;53.20;;;;;;4989848;28;20207;-70
2022/03/11 13:38:36;;;;;;;3.35;3.08;;;9.20;52.70;;;;;;4991850;28;20219;-73
2022/03/11 13:41:03;;;;;;;5.57;5.28;;;9.20;52.70;;;;;;4992509;28;20212;-72
2022/03/11 13:43:29;;;;;;;4.43;3.33;;;9.20;52.40;;;;;;4976088;28;20236;-71
2022/03/11 13:45:58;;;;;;;10.07;4.20;;;9.30;52.90;;;;;;4973936;28;20272;-71
2022/03/11 13:48:29;;;;;;;6.50;5.28;;;9.20;53.20;;;;;;4973787;28;20604;-71
2022/03/11 13:51:01;;;;;;;6.45;4.43;;;9.30;53.20;;;;;;4972363;28;20629;-71
2022/03/11 13:53:29;;;;;;;4.32;4.03;;;9.40;53.10;;;;;;4973970;28;20251;-71
2022/03/11 13:55:57;;;;;;;3.67;3.47;;;9.40;52.80;;;;;;4989079;28;20208;-71
2022/03/11 13:58:25;;;;;;;4.90;4.50;;;9.50;53.30;;;;;;4993556;28;20223;-71
2022/03/11 14:00:53;;;;;;;3.90;3.60;;;9.40;53.20;;;;;;4993096;28;20263;-70
2022/03/11 14:03:22;;;;;;;4.40;4.10;;;9.50;53.20;;;;;;4988018;28;20686;-71
2022/03/11 14:05:50;;;;;;;5.95;3.40;;;9.60;53.10;;;;;;4972981;28;20201;-71
2022/03/11 14:08:25;;;;;;;3.03;2.92;;;9.50;52.80;;;;;;4986872;28;20207;-70
2022/03/11 14:10:53;;;;;;;5.60;4.78;;;9.50;53.00;;;;;;4985953;28;20206;-72
2022/03/11 14:13:25;;;;;;;5.32;3.78;;;9.50;52.20;;;;;;4993305;28;20224;-71
2022/03/11 14:15:53;;;;;;;4.05;3.80;;;9.50;52.30;;;;;;4992987;28;20208;-70
2022/03/11 14:18:24;;;;;;;4.88;4.07;;;9.40;51.90;;;;;;4991941;28;20228;-71
2022/03/11 14:20:51;;;;;;;3.80;2.90;;;9.30;51.70;;;;;;4992003;28;20207;-71
2022/03/11 14:23:20;;;;;;;3.78;3.35;;;9.40;51.70;;;;;;4988929;28;20738;-71
2022/03/11 14:25:47;;;;;;;4.15;3.80;;;9.40;52.30;;;;;;4992346;28;20241;-71
2022/03/11 14:28:15;;;;;;;3.42;3.10;;;9.50;52.70;;;;;;4991936;28;20590;-71
2022/03/11 14:30:41;;;;;;;3.00;2.80;;;9.50;52.70;;;;;;4991477;28;20196;-71
2022/03/11 14:33:09;;;;;;;4.80;4.10;;;9.60;52.70;;;;;;4991801;28;20239;-71
2022/03/11 14:35:38;;;;;;;4.55;4.15;;;9.60;52.30;;;;;;4994033;28;20222;-71
2022/03/11 14:38:05;;;;;;;7.85;5.10;;;9.70;52.90;;;;;;4996003;28;20306;-71
2022/03/11 14:40:33;;;;;;;4.10;3.40;;;9.60;52.70;;;;;;4990586;28;20984;-71
2022/03/11 14:43:00;;;;;;;3.30;2.65;;;9.70;52.40;;;;;;4972364;28;20875;-71
2022/03/11 14:45:28;;;;;;;4.35;3.88;;;9.70;52.10;;;;;;4972310;28;20205;-71
2022/03/11 14:47:55;;;;;;;5.15;4.88;;;9.70;51.70;;;;;;4990838;28;20227;-71
2022/03/11 14:50:22;;;;;;;4.13;3.72;;;9.70;51.60;;;;;;4991262;28;20200;-71
2022/03/11 14:52:51;;;;;;;5.50;3.42;;;9.70;50.80;;;;;;4974560;28;20224;-71
2022/03/11 14:55:21;;;;;;;3.55;3.25;;;9.70;51.20;;;;;;4972892;28;20212;-70
2022/03/11 14:57:48;;;;;;;4.13;3.70;;;9.70;51.20;;;;;;4989101;28;20207;-71
2022/03/11 15:00:17;;;;;;;5.78;5.28;;;9.70;50.80;;;;;;4988871;28;20235;-71
2022/03/11 15:02:44;;;;;;;6.50;5.68;;;9.70;51.40;;;;;;4991364;28;20223;-71
2022/03/11 15:05:12;;;;;;;4.45;4.15;;;9.70;51.90;;;;;;4990863;28;20211;-71
2022/03/11 15:07:39;;;;;;;6.22;5.40;;;9.70;51.50;;;;;;4987630;28;20212;-71
2022/03/11 15:10:09;;;;;;;4.22;3.78;;;9.70;52.00;;;;;;4971473;28;20307;-73
2022/03/11 15:12:37;;;;;;;3.75;3.55;;;9.70;52.00;;;;;;4990229;28;20292;-69
2022/03/11 15:15:04;;;;;;;3.67;3.47;;;9.70;51.20;;;;;;4991708;28;20226;-69
2022/03/11 15:17:31;;;;;;;5.38;4.38;;;9.60;51.50;;;;;;4985175;28;20664;-69
2022/03/11 15:20:01;;;;;;;5.50;3.58;;;9.60;51.30;;;;;;4990848;28;20228;-70
2022/03/11 15:22:28;;;;;;;4.32;3.92;;;9.60;50.90;;;;;;4985074;28;20220;-70
2022/03/11 15:24:54;;;;;;;5.18;3.40;;;9.60;50.50;;;;;;4988718;28;20216;-68
2022/03/11 15:27:23;;;;;;;10.27;2.90;;;9.60;50.90;;;;;;4989774;28;20215;-69
2022/03/11 15:29:49;;;;;;;3.92;3.72;;;9.60;50.90;;;;;;4990173;28;20680;-70
2022/03/11 15:32:16;;;;;;;4.32;4.00;;;9.50;50.60;;;;;;4991672;28;20219;-71
2022/03/11 15:34:43;;;;;;;5.40;4.43;;;9.50;50.60;;;;;;4991185;28;20286;-69
2022/03/11 15:37:09;;;;;;;4.57;3.08;;;9.50;50.70;;;;;;4989689;28;20211;-69
2022/03/11 15:39:36;;;;;;;5.82;4.10;;;9.50;51.20;;;;;;4990053;28;20308;-69
2022/03/11 15:42:03;;;;;;;5.05;3.60;;;9.50;51.30;;;;;;4991020;28;20669;-69
2022/03/11 15:44:31;;;;;;;3.60;2.90;;;9.50;50.60;;;;;;4990410;28;20244;-69
2022/03/11 15:46:58;;;;;;;7.07;4.38;;;9.40;50.30;;;;;;4990967;28;20204;-69
2022/03/11 15:49:24;;;;;;;7.18;4.22;;;9.40;50.40;;;;;;4990371;28;20211;-70
2022/03/11 15:51:51;;;;;;;10.88;5.10;;;9.40;50.50;;;;;;4975985;28;20299;-69
2022/03/11 15:54:18;;;;;;;2.88;2.65;;;9.40;50.60;;;;;;4983965;28;20235;-69
2022/03/11 15:56:45;;;;;;;6.57;4.85;;;9.40;51.50;;;;;;4990837;28;20211;-69
2022/03/11 15:59:12;;;;;;;4.50;4.00;;;9.30;51.80;;;;;;4989393;28;20227;-69
2022/03/11 16:01:40;;;;;;;6.65;4.13;;;9.40;51.70;;;;;;4990274;28;20208;-71
2022/03/11 16:04:08;;;;;;;5.70;4.60;;;9.40;51.50;;;;;;4989851;28;20258;-69
2022/03/11 16:06:35;;;;;;;3.78;3.53;;;9.20;52.10;;;;;;4990246;28;20200;-69
2022/03/11 16:09:02;;;;;;;4.68;4.28;;;9.20;52.10;;;;;;4987414;28;20647;-70
2022/03/11 16:11:29;;;;;;;3.47;3.28;;;9.20;53.00;;;;;;4989898;28;20824;-69
2022/03/11 16:13:56;;;;;;;3.42;2.92;;;9.20;52.90;;;;;;4990840;28;20713;-69
2022/03/11 16:16:24;;;;;;;13.80;4.22;;;9.10;53.50;;;;;;4990181;28;20208;-68
2022/03/11 16:18:53;;;;;;;5.53;4.78;;;9.00;53.10;;;;;;4974710;28;20205;-70
2022/03/11 16:21:21;;;;;;;5.05;4.65;;;8.90;53.40;;;;;;4970585;28;20208;-69
2022/03/11 16:23:48;;;;;;;4.65;4.10;;;8.90;53.10;;;;;;4989340;28;20298;-69
2022/03/11 16:26:15;;;;;;;5.40;3.67;;;8.90;53.50;;;;;;4989940;28;20265;-70
2022/03/11 16:28:42;;;;;;;3.92;3.60;;;8.80;53.60;;;;;;4984947;28;20294;-70
2022/03/11 16:31:09;;;;;;;4.72;4.32;;;8.80;53.80;;;;;;4990365;28;20227;-70
2022/03/11 16:33:35;;;;;;;4.40;4.00;;;8.70;54.30;;;;;;4995845;28;20751;-70
2022/03/11 16:36:04;;;;;;;3.72;3.53;;;8.70;54.70;;;;;;4991319;28;20807;-69
2022/03/11 16:38:31;;;;;;;5.93;5.35;;;8.60;54.60;;;;;;4990281;28;20636;-70
2022/03/11 16:40:58;;;;;;;4.82;4.35;;;8.50;55.30;;;;;;4989922;28;20647;-70
2022/03/11 16:43:25;;;;;;;4.25;3.88;;;8.40;55.00;;;;;;4989011;28;20232;-69
2022/03/11 16:45:52;;;;;;;7.53;5.45;;;8.40;55.20;;;;;;4988879;28;20204;-71
2022/03/11 16:48:19;;;;;;;6.15;5.53;;;8.30;55.70;;;;;;4998235;28;20218;-71
2022/03/11 16:50:45;;;;;;;9.75;5.53;;;8.20;56.40;;;;;;4993145;28;20235;-70
2022/03/11 16:53:13;;;;;;;4.65;4.25;;;8.20;55.80;;;;;;4988307;28;20311;-69
2022/03/11 16:55:40;;;;;;;8.00;5.28;;;8.10;55.90;;;;;;4992267;28;21021;-72
2022/03/11 16:58:08;;;;;;;5.45;4.80;;;8.00;56.10;;;;;;4988231;28;20269;-70
2022/03/11 17:00:35;;;;;;;4.60;4.15;;;8.00;56.50;;;;;;4989810;28;20223;-71
2022/03/11 17:03:02;;;;;;;7.38;4.22;;;7.90;56.30;;;;;;4991845;28;20231;-71
2022/03/11 17:05:28;;;;;;;3.95;3.65;;;7.90;56.30;;;;;;4989743;28;20204;-70
2022/03/11 17:07:56;;;;;;;3.97;3.67;;;7.80;56.70;;;;;;4989846;28;20212;-69
2022/03/11 17:10:25;;;;;;;5.78;5.28;;;7.80;56.10;;;;;;4991661;28;20208;-70
2022/03/11 17:12:52;;;;;;;4.45;4.15;;;7.80;56.50;;;;;;4993934;28;20243;-70
2022/03/11 17:15:19;;;;;;;6.57;5.97;;;7.70;56.50;;;;;;4990921;28;20258;-69
2022/03/11 17:17:46;;;;;;;6.55;4.53;;;7.60;56.80;;;;;;4986658;28;20590;-69
2022/03/11 17:20:14;;;;;;;3.40;3.13;;;7.60;57.20;;;;;;4993475;28;20224;-71
2022/03/11 17:22:41;;;;;;;4.70;3.88;;;7.50;57.10;;;;;;4984923;28;20319;-75
2022/03/11 17:25:10;;;;;;;9.90;5.22;;;7.40;57.20;;;;;;4994334;28;20200;-70
2022/03/11 17:27:38;;;;;;;7.05;4.65;;;7.40;57.30;;;;;;4990927;28;20278;-69
2022/03/11 17:30:07;;;;;;;4.10;3.90;;;7.40;57.00;;;;;;4992453;28;20207;-69
2022/03/11 17:32:33;;;;;;;4.85;4.47;;;7.40;56.90;;;;;;4992860;28;20215;-71
2022/03/11 17:35:00;;;;;;;4.53;4.22;;;7.30;57.10;;;;;;4994572;28;20208;-71
2022/03/11 17:37:27;;;;;;;10.10;6.55;;;7.30;57.30;;;;;;4992488;28;20548;-69
2022/03/11 17:39:54;;;;;;;5.03;4.45;;;7.30;57.10;;;;;;4993277;28;20310;-70
2022/03/11 17:42:21;;;;;;;8.18;5.13;;;7.20;57.00;;;;;;4988860;28;20291;-69
2022/03/11 17:44:49;;;;;;;5.10;4.70;;;7.20;57.20;;;;;;4992997;28;20215;-70
2022/03/11 17:47:16;;;;;;;3.72;3.47;;;7.10;57.20;;;;;;4992710;28;20196;-69
2022/03/11 17:49:43;;;;;;;4.13;3.75;;;7.10;57.00;;;;;;4993245;28;20665;-69
2022/03/11 17:52:12;;;;;;;6.90;5.50;;;7.10;57.20;;;;;;4992867;28;20258;-70
2022/03/11 17:54:38;;;;;;;6.50;4.97;;;7.10;57.20;;;;;;4992982;28;20243;-70
2022/03/11 17:57:06;;;;;;;6.85;4.15;;;7.00;56.90;;;;;;4993084;28;20314;-70
2022/03/11 17:59:33;;;;;;;6.13;5.63;;;7.00;56.90;;;;;;4993301;28;20228;-70
2022/03/11 18:02:01;;;;;;;6.10;4.18;;;7.00;57.30;;;;;;4992816;28;20215;-70